sensor_id;sensor_type;location;lat;lon;timestamp;pressure;altitude;pressure_sealevel;temperature;humidity
5877;BME280;2964;42.144;24.730;2024-01-11T00:01:55;140994.06;;;-2.66;100.00
5877;BME280;2964;42.144;24.730;2024-01-11T00:04:23;140985.38;;;-2.69;100.00
5877;BME280;2964;42.144;24.730;2024-01-11T00:06:50;140961.81;;;-2.79;100.00
5877;BME280;2964;42.144;24.730;2024-01-11T00:09:17;141130.72;;;-2.09;100.00
5877;BME280;2964;42.144;24.730;2024-01-11T00:11:44;141051.22;;;-2.42;100.00
5877;BME280;2964;42.144;24.730;2024-01-11T00:14:11;140960.59;;;-2.80;100.00
5877;BME280;2964;42.144;24.730;2024-01-11T00:16:37;141079.81;;;-2.30;100.00
5877;BME280;2964;42.144;24.730;2024-01-11T00:19:04;141067.38;;;-2.36;100.00
5877;BME280;2964;42.144;24.730;2024-01-11T00:21:32;140989.13;;;-2.68;100.00
5877;BME280;2964;42.144;24.730;2024-01-11T00:23:59;140968.00;;;-2.77;100.00
5877;BME280;2964;42.144;24.730;2024-01-11T00:26:25;140779.34;;;-3.55;100.00
5877;BME280;2964;42.144;24.730;2024-01-11T00:28:52;140971.72;;;-2.75;100.00
5877;BME280;2964;42.144;24.730;2024-01-11T00:31:19;140976.69;;;-2.73;100.00
5877;BME280;2964;42.144;24.730;2024-01-11T00:33:45;140971.72;;;-2.75;100.00
5877;BME280;2964;42.144;24.730;2024-01-11T00:36:17;140965.53;;;-2.78;100.00
5877;BME280;2964;42.144;24.730;2024-01-11T00:38:45;140937.00;;;-2.89;100.00
5877;BME280;2964;42.144;24.730;2024-01-11T00:41:12;140968.00;;;-2.77;100.00
5877;BME280;2964;42.144;24.730;2024-01-11T00:43:38;140937.00;;;-2.89;100.00
5877;BME280;2964;42.144;24.730;2024-01-11T00:46:05;140956.84;;;-2.81;100.00
5877;BME280;2964;42.144;24.730;2024-01-11T00:48:32;140941.97;;;-2.87;100.00
5877;BME280;2964;42.144;24.730;2024-01-11T00:50:58;140982.94;;;-2.70;100.00
5877;BME280;2964;42.144;24.730;2024-01-11T00:53:25;140969.28;;;-2.76;100.00
5877;BME280;2964;42.144;24.730;2024-01-11T00:55:57;140963.03;;;-2.79;100.00
5877;BME280;2964;42.144;24.730;2024-01-11T00:58:23;140986.66;;;-2.69;100.00
5877;BME280;2964;42.144;24.730;2024-01-11T01:00:50;140939.47;;;-2.88;100.00
5877;BME280;2964;42.144;24.730;2024-01-11T01:03:18;141068.63;;;-2.35;100.00
5877;BME280;2964;42.144;24.730;2024-01-11T01:05:45;140986.66;;;-2.69;100.00
5877;BME280;2964;42.144;24.730;2024-01-11T01:08:11;141041.28;;;-2.46;100.00
5877;BME280;2964;42.144;24.730;2024-01-11T01:10:38;140973.00;;;-2.75;100.00
5877;BME280;2964;42.144;24.730;2024-01-11T01:13:06;140964.31;;;-2.78;100.00
5877;BME280;2964;42.144;24.730;2024-01-11T01:15:33;140951.88;;;-2.83;100.00
5877;BME280;2964;42.144;24.730;2024-01-11T01:18:00;140927.03;;;-2.94;100.00
5877;BME280;2964;42.144;24.730;2024-01-11T01:20:27;141002.78;;;-2.62;100.00
5877;BME280;2964;42.144;24.730;2024-01-11T01:22:53;140953.13;;;-2.83;100.00
5877;BME280;2964;42.144;24.730;2024-01-11T01:25:20;140935.72;;;-2.90;100.00
5877;BME280;2964;42.144;24.730;2024-01-11T01:27:47;140996.59;;;-2.65;100.00
5877;BME280;2964;42.144;24.730;2024-01-11T01:30:15;140966.78;;;-2.77;100.00
5877;BME280;2964;42.144;24.730;2024-01-11T01:32:42;140935.72;;;-2.90;100.00
5877;BME280;2964;42.144;24.730;2024-01-11T01:35:08;141033.81;;;-2.49;100.00
5877;BME280;2964;42.144;24.730;2024-01-11T01:37:35;141094.69;;;-2.24;100.00
5877;BME280;2964;42.144;24.730;2024-01-11T01:40:03;140995.34;;;-2.65;100.00
5877;BME280;2964;42.144;24.730;2024-01-11T01:42:30;141086.00;;;-2.28;100.00
5877;BME280;2964;42.144;24.730;2024-01-11T01:44:57;141230.13;;;-1.68;100.00
5877;BME280;2964;42.144;24.730;2024-01-11T01:47:25;141149.34;;;-2.02;100.00
5877;BME280;2964;42.144;24.730;2024-01-11T01:49:52;141192.84;;;-1.84;100.00
5877;BME280;2964;42.144;24.730;2024-01-11T01:52:20;141089.75;;;-2.26;100.00
5877;BME280;2964;42.144;24.730;2024-01-11T01:54:48;141163.03;;;-1.96;100.00
5877;BME280;2964;42.144;24.730;2024-01-11T01:57:16;141172.94;;;-1.92;100.00
5877;BME280;2964;42.144;24.730;2024-01-11T01:59:45;141105.88;;;-2.20;100.00
5877;BME280;2964;42.144;24.730;2024-01-11T02:02:12;141036.31;;;-2.48;100.00
5877;BME280;2964;42.144;24.730;2024-01-11T02:04:41;141099.66;;;-2.22;100.00
5877;BME280;2964;42.144;24.730;2024-01-11T02:07:08;141033.81;;;-2.49;100.00
5877;BME280;2964;42.144;24.730;2024-01-11T02:09:36;141046.25;;;-2.44;100.00
5877;BME280;2964;42.144;24.730;2024-01-11T02:12:04;141073.56;;;-2.33;100.00
5877;BME280;2964;42.144;24.730;2024-01-11T02:14:32;141021.41;;;-2.55;100.00
5877;BME280;2964;42.144;24.730;2024-01-11T02:16:58;140924.56;;;-2.95;100.00
5877;BME280;2964;42.144;24.730;2024-01-11T02:19:27;140933.28;;;-2.91;100.00
5877;BME280;2964;42.144;24.730;2024-01-11T02:21:59;140929.53;;;-2.93;100.00
5877;BME280;2964;42.144;24.730;2024-01-11T02:24:28;141086.00;;;-2.28;100.00
5877;BME280;2964;42.144;24.730;2024-01-11T02:26:59;141021.41;;;-2.55;100.00
5877;BME280;2964;42.144;24.730;2024-01-11T02:29:26;140969.28;;;-2.76;100.00
5877;BME280;2964;42.144;24.730;2024-01-11T02:31:53;140984.16;;;-2.70;100.00
5877;BME280;2964;42.144;24.730;2024-01-11T02:34:20;140999.03;;;-2.64;100.00
5877;BME280;2964;42.144;24.730;2024-01-11T02:36:47;141086.00;;;-2.28;100.00
5877;BME280;2964;42.144;24.730;2024-01-11T02:39:16;140956.84;;;-2.81;100.00
5877;BME280;2964;42.144;24.730;2024-01-11T02:41:45;141031.38;;;-2.50;100.00
5877;BME280;2964;42.144;24.730;2024-01-11T02:44:11;141028.88;;;-2.52;100.00
5877;BME280;2964;42.144;24.730;2024-01-11T02:46:38;141011.47;;;-2.59;100.00
5877;BME280;2964;42.144;24.730;2024-01-11T02:49:05;140944.41;;;-2.86;100.00
5877;BME280;2964;42.144;24.730;2024-01-11T02:51:31;140919.63;;;-2.97;100.00
5877;BME280;2964;42.144;24.730;2024-01-11T02:53:58;140871.22;;;-3.17;100.00
5877;BME280;2964;42.144;24.730;2024-01-11T02:56:24;140882.34;;;-3.12;100.00
5877;BME280;2964;42.144;24.730;2024-01-11T02:58:52;140904.69;;;-3.03;100.00
5877;BME280;2964;42.144;24.730;2024-01-11T03:01:19;140827.75;;;-3.35;100.00
5877;BME280;2964;42.144;24.730;2024-01-11T03:03:46;140828.97;;;-3.34;100.00
5877;BME280;2964;42.144;24.730;2024-01-11T03:06:12;140889.81;;;-3.09;100.00
5877;BME280;2964;42.144;24.730;2024-01-11T03:08:39;140811.59;;;-3.41;100.00
5877;BME280;2964;42.144;24.730;2024-01-11T03:11:06;140799.22;;;-3.46;100.00
5877;BME280;2964;42.144;24.730;2024-01-11T03:13:33;140769.44;;;-3.59;100.00
5877;BME280;2964;42.144;24.730;2024-01-11T03:16:01;140721.06;;;-3.79;100.00
5877;BME280;2964;42.144;24.730;2024-01-11T03:18:28;140718.59;;;-3.80;100.00
5877;BME280;2964;42.144;24.730;2024-01-11T03:20:56;140828.97;;;-3.34;100.00
5877;BME280;2964;42.144;24.730;2024-01-11T03:23:23;140853.81;;;-3.24;100.00
5877;BME280;2964;42.144;24.730;2024-01-11T03:25:49;140934.50;;;-2.91;100.00
5877;BME280;2964;42.144;24.730;2024-01-11T03:28:16;140913.38;;;-2.99;100.00
5877;BME280;2964;42.144;24.730;2024-01-11T03:30:43;140846.34;;;-3.27;100.00
5877;BME280;2964;42.144;24.730;2024-01-11T03:33:11;140899.72;;;-3.05;100.00
5877;BME280;2964;42.144;24.730;2024-01-11T03:35:38;141036.31;;;-2.48;100.00
5877;BME280;2964;42.144;24.730;2024-01-11T03:38:05;141022.66;;;-2.54;100.00
5877;BME280;2964;42.144;24.730;2024-01-11T03:40:32;140837.66;;;-3.31;100.00
5877;BME280;2964;42.144;24.730;2024-01-11T03:42:59;140781.84;;;-3.54;100.00
5877;BME280;2964;42.144;24.730;2024-01-11T03:45:25;140853.81;;;-3.24;100.00
5877;BME280;2964;42.144;24.730;2024-01-11T03:47:51;140814.09;;;-3.40;100.00
5877;BME280;2964;42.144;24.730;2024-01-11T03:50:19;140877.38;;;-3.14;100.00
5877;BME280;2964;42.144;24.730;2024-01-11T03:52:46;140814.09;;;-3.40;100.00
5877;BME280;2964;42.144;24.730;2024-01-11T03:55:12;140828.97;;;-3.34;100.00
5877;BME280;2964;42.144;24.730;2024-01-11T03:57:39;140793.00;;;-3.49;100.00
5877;BME280;2964;42.144;24.730;2024-01-11T04:00:07;140831.47;;;-3.33;100.00
5877;BME280;2964;42.144;24.730;2024-01-11T04:02:34;140780.56;;;-3.54;100.00
5877;BME280;2964;42.144;24.730;2024-01-11T04:05:01;140739.66;;;-3.71;100.00
5877;BME280;2964;42.144;24.730;2024-01-11T04:07:30;140739.66;;;-3.71;100.00
5877;BME280;2964;42.144;24.730;2024-01-11T04:09:56;140729.75;;;-3.75;100.00
5877;BME280;2964;42.144;24.730;2024-01-11T04:12:23;140721.06;;;-3.79;100.00
5877;BME280;2964;42.144;24.730;2024-01-11T04:14:50;140718.59;;;-3.80;100.00
5877;BME280;2964;42.144;24.730;2024-01-11T04:17:16;140723.56;;;-3.78;100.00
5877;BME280;2964;42.144;24.730;2024-01-11T04:19:43;140714.88;;;-3.81;100.00
5877;BME280;2964;42.144;24.730;2024-01-11T04:22:10;140693.78;;;-3.90;100.00
5877;BME280;2964;42.144;24.730;2024-01-11T04:24:38;140706.19;;;-3.85;100.00
5877;BME280;2964;42.144;24.730;2024-01-11T04:27:04;140739.66;;;-3.71;100.00
5877;BME280;2964;42.144;24.730;2024-01-11T04:29:31;140711.13;;;-3.83;100.00
5877;BME280;2964;42.144;24.730;2024-01-11T04:31:58;140699.94;;;-3.88;100.00
5877;BME280;2964;42.144;24.730;2024-01-11T04:34:24;140696.28;;;-3.89;100.00
5877;BME280;2964;42.144;24.730;2024-01-11T04:36:51;140713.59;;;-3.82;100.00
5877;BME280;2964;42.144;24.730;2024-01-11T04:39:18;140701.22;;;-3.87;100.00
5877;BME280;2964;42.144;24.730;2024-01-11T04:41:46;140690.03;;;-3.92;100.00
5877;BME280;2964;42.144;24.730;2024-01-11T04:44:13;140691.25;;;-3.91;100.00
5877;BME280;2964;42.144;24.730;2024-01-11T04:46:40;140671.44;;;-3.99;100.00
5877;BME280;2964;42.144;24.730;2024-01-11T04:49:07;140695.00;;;-3.90;100.00
5877;BME280;2964;42.144;24.730;2024-01-11T04:51:34;140703.69;;;-3.86;100.00
5877;BME280;2964;42.144;24.730;2024-01-11T04:54:01;140723.56;;;-3.78;100.00
5877;BME280;2964;42.144;24.730;2024-01-11T04:56:27;140712.38;;;-3.82;100.00
5877;BME280;2964;42.144;24.730;2024-01-11T04:58:56;140686.31;;;-3.93;100.00
5877;BME280;2964;42.144;24.730;2024-01-11T05:01:24;140703.69;;;-3.86;100.00
5877;BME280;2964;42.144;24.730;2024-01-11T05:03:50;140706.19;;;-3.85;100.00
5877;BME280;2964;42.144;24.730;2024-01-11T05:06:17;140703.69;;;-3.86;100.00
5877;BME280;2964;42.144;24.730;2024-01-11T05:08:44;140685.09;;;-3.94;100.00
5877;BME280;2964;42.144;24.730;2024-01-11T05:11:15;140656.56;;;-4.05;100.00
5877;BME280;2964;42.144;24.730;2024-01-11T05:13:43;140655.31;;;-4.06;100.00
5877;BME280;2964;42.144;24.730;2024-01-11T05:16:18;140656.56;;;-4.05;100.00
5877;BME280;2964;42.144;24.730;2024-01-11T05:18:45;140697.50;;;-3.89;100.00
5877;BME280;2964;42.144;24.730;2024-01-11T05:21:12;140685.09;;;-3.94;100.00
5877;BME280;2964;42.144;24.730;2024-01-11T05:23:40;140668.94;;;-4.00;100.00
5877;BME280;2964;42.144;24.730;2024-01-11T05:26:07;140661.53;;;-4.03;100.00
5877;BME280;2964;42.144;24.730;2024-01-11T05:28:34;140656.56;;;-4.05;100.00
5877;BME280;2964;42.144;24.730;2024-01-11T05:31:01;140660.25;;;-4.04;100.00
5877;BME280;2964;42.144;24.730;2024-01-11T05:33:30;140680.13;;;-3.96;100.00
5877;BME280;2964;42.144;24.730;2024-01-11T05:35:56;140744.59;;;-3.69;100.00
5877;BME280;2964;42.144;24.730;2024-01-11T05:38:23;140686.31;;;-3.93;100.00
5877;BME280;2964;42.144;24.730;2024-01-11T05:40:50;140673.94;;;-3.98;100.00
5877;BME280;2964;42.144;24.730;2024-01-11T05:43:16;140639.22;;;-4.13;100.00
5877;BME280;2964;42.144;24.730;2024-01-11T05:45:43;140703.69;;;-3.86;100.00
5877;BME280;2964;42.144;24.730;2024-01-11T05:48:10;140699.94;;;-3.88;100.00
5877;BME280;2964;42.144;24.730;2024-01-11T05:50:38;140774.41;;;-3.57;100.00
5877;BME280;2964;42.144;24.730;2024-01-11T05:53:05;140723.56;;;-3.78;100.00
5877;BME280;2964;42.144;24.730;2024-01-11T05:55:31;140657.81;;;-4.05;100.00
5877;BME280;2964;42.144;24.730;2024-01-11T05:57:58;140686.31;;;-3.93;100.00
5877;BME280;2964;42.144;24.730;2024-01-11T06:00:25;140701.22;;;-3.87;100.00
5877;BME280;2964;42.144;24.730;2024-01-11T06:02:51;140693.78;;;-3.90;100.00
5877;BME280;2964;42.144;24.730;2024-01-11T06:05:20;140686.31;;;-3.93;100.00
5877;BME280;2964;42.144;24.730;2024-01-11T06:07:48;140678.91;;;-3.96;100.00
5877;BME280;2964;42.144;24.730;2024-01-11T06:10:15;140723.56;;;-3.78;100.00
5877;BME280;2964;42.144;24.730;2024-01-11T06:12:42;140716.09;;;-3.81;100.00
5877;BME280;2964;42.144;24.730;2024-01-11T06:15:09;140721.06;;;-3.79;100.00
5877;BME280;2964;42.144;24.730;2024-01-11T06:17:36;140730.97;;;-3.75;100.00
5877;BME280;2964;42.144;24.730;2024-01-11T06:20:03;140745.88;;;-3.69;100.00
5877;BME280;2964;42.144;24.730;2024-01-11T06:22:30;140729.75;;;-3.75;100.00
5877;BME280;2964;42.144;24.730;2024-01-11T06:24:58;140778.13;;;-3.55;100.00
5877;BME280;2964;42.144;24.730;2024-01-11T06:27:25;140783.09;;;-3.53;100.00
5877;BME280;2964;42.144;24.730;2024-01-11T06:29:52;140820.28;;;-3.38;100.00
5877;BME280;2964;42.144;24.730;2024-01-11T06:32:18;140924.56;;;-2.95;100.00
5877;BME280;2964;42.144;24.730;2024-01-11T06:34:45;140994.06;;;-2.66;100.00
5877;BME280;2964;42.144;24.730;2024-01-11T06:37:12;140948.16;;;-2.85;100.00
5877;BME280;2964;42.144;24.730;2024-01-11T06:39:39;140999.03;;;-2.64;100.00
5877;BME280;2964;42.144;24.730;2024-01-11T06:42:07;140879.91;;;-3.13;100.00
5877;BME280;2964;42.144;24.730;2024-01-11T06:44:34;140866.25;;;-3.19;100.00
5877;BME280;2964;42.144;24.730;2024-01-11T06:47:01;140907.19;;;-3.02;100.00
5877;BME280;2964;42.144;24.730;2024-01-11T06:49:29;140848.88;;;-3.26;100.00
5877;BME280;2964;42.144;24.730;2024-01-11T06:51:56;140935.72;;;-2.90;100.00
5877;BME280;2964;42.144;24.730;2024-01-11T06:54:22;140937.00;;;-2.89;100.00
5877;BME280;2964;42.144;24.730;2024-01-11T06:56:49;140994.06;;;-2.66;100.00
5877;BME280;2964;42.144;24.730;2024-01-11T06:59:17;141041.28;;;-2.46;100.00
5877;BME280;2964;42.144;24.730;2024-01-11T07:01:44;141043.75;;;-2.45;100.00
5877;BME280;2964;42.144;24.730;2024-01-11T07:04:10;141059.91;;;-2.39;100.00
5877;BME280;2964;42.144;24.730;2024-01-11T07:06:37;141032.59;;;-2.50;100.00
5877;BME280;2964;42.144;24.730;2024-01-11T07:09:04;141043.75;;;-2.45;100.00
5877;BME280;2964;42.144;24.730;2024-01-11T07:11:31;141128.22;;;-2.10;100.00
5877;BME280;2964;42.144;24.730;2024-01-11T07:13:58;141109.59;;;-2.18;100.00
5877;BME280;2964;42.144;24.730;2024-01-11T07:16:26;141120.81;;;-2.14;100.00
5877;BME280;2964;42.144;24.730;2024-01-11T07:18:53;141135.69;;;-2.07;100.00
5877;BME280;2964;42.144;24.730;2024-01-11T07:21:21;141124.53;;;-2.12;100.00
5877;BME280;2964;42.144;24.730;2024-01-11T07:23:54;141102.19;;;-2.21;100.00
5877;BME280;2964;42.144;24.730;2024-01-11T07:26:22;141143.16;;;-2.04;100.00
5877;BME280;2964;42.144;24.730;2024-01-11T07:28:49;141125.75;;;-2.11;100.00
5877;BME280;2964;42.144;24.730;2024-01-11T07:31:16;141252.50;;;-1.59;100.00
5877;BME280;2964;42.144;24.730;2024-01-11T07:33:44;141124.53;;;-2.12;100.00
5877;BME280;2964;42.144;24.730;2024-01-11T07:36:11;141240.06;;;-1.64;100.00
5877;BME280;2964;42.144;24.730;2024-01-11T07:38:38;141267.44;;;-1.53;99.58
5877;BME280;2964;42.144;24.730;2024-01-11T07:41:05;141339.53;;;-1.23;98.63
5877;BME280;2964;42.144;24.730;2024-01-11T07:43:31;141312.19;;;-1.34;99.54
5877;BME280;2964;42.144;24.730;2024-01-11T07:46:00;141405.41;;;-0.96;99.61
5877;BME280;2964;42.144;24.730;2024-01-11T07:48:28;141512.41;;;-0.52;97.44
5877;BME280;2964;42.144;24.730;2024-01-11T07:50:57;141635.63;;;-0.01;96.81
5877;BME280;2964;42.144;24.730;2024-01-11T07:53:24;141814.94;;;0.73;93.71
5877;BME280;2964;42.144;24.730;2024-01-11T07:55:51;141814.94;;;0.73;92.06
5877;BME280;2964;42.144;24.730;2024-01-11T07:58:17;141731.47;;;0.38;92.56
5877;BME280;2964;42.144;24.730;2024-01-11T08:00:46;141833.59;;;0.81;92.51
5877;BME280;2964;42.144;24.730;2024-01-11T08:03:13;141854.78;;;0.89;91.54
5877;BME280;2964;42.144;24.730;2024-01-11T08:05:40;141824.88;;;0.77;92.69
5877;BME280;2964;42.144;24.730;2024-01-11T08:08:08;141807.44;;;0.70;91.96
5877;BME280;2964;42.144;24.730;2024-01-11T08:10:34;141772.59;;;0.55;93.30
5877;BME280;2964;42.144;24.730;2024-01-11T08:13:01;141753.88;;;0.48;92.79
5877;BME280;2964;42.144;24.730;2024-01-11T08:15:29;141750.19;;;0.46;92.73
5877;BME280;2964;42.144;24.730;2024-01-11T08:17:55;141824.88;;;0.77;93.92
5877;BME280;2964;42.144;24.730;2024-01-11T08:20:23;141707.81;;;0.29;95.29
5877;BME280;2964;42.144;24.730;2024-01-11T08:22:50;141737.72;;;0.41;96.13
5877;BME280;2964;42.144;24.730;2024-01-11T08:25:18;141843.56;;;0.85;94.13
5877;BME280;2964;42.144;24.730;2024-01-11T08:27:45;141937.00;;;1.23;91.81
5877;BME280;2964;42.144;24.730;2024-01-11T08:30:12;141922.06;;;1.17;93.25
5877;BME280;2964;42.144;24.730;2024-01-11T08:32:39;141847.31;;;0.86;91.93
5877;BME280;2964;42.144;24.730;2024-01-11T08:35:08;141932.03;;;1.21;91.67
5877;BME280;2964;42.144;24.730;2024-01-11T08:37:37;141828.63;;;0.79;91.96
5877;BME280;2964;42.144;24.730;2024-01-11T08:40:04;141869.72;;;0.95;92.97
5877;BME280;2964;42.144;24.730;2024-01-11T08:42:32;141909.59;;;1.12;94.94
5877;BME280;2964;42.144;24.730;2024-01-11T08:44:59;141961.94;;;1.33;93.27
5877;BME280;2964;42.144;24.730;2024-01-11T08:47:32;142044.19;;;1.67;92.71
5877;BME280;2964;42.144;24.730;2024-01-11T08:49:58;142057.91;;;1.73;91.40
5877;BME280;2964;42.144;24.730;2024-01-11T08:52:25;142049.19;;;1.69;90.69
5877;BME280;2964;42.144;24.730;2024-01-11T08:54:52;142029.25;;;1.61;91.69
5877;BME280;2964;42.144;24.730;2024-01-11T08:57:18;142003.06;;;1.50;93.07
5877;BME280;2964;42.144;24.730;2024-01-11T08:59:46;142282.41;;;2.65;89.14
5877;BME280;2964;42.144;24.730;2024-01-11T09:02:13;142407.22;;;3.17;87.59
5877;BME280;2964;42.144;24.730;2024-01-11T09:04:40;142336.06;;;2.87;85.86
5877;BME280;2964;42.144;24.730;2024-01-11T09:07:06;142319.88;;;2.81;86.23
5877;BME280;2964;42.144;24.730;2024-01-11T09:09:33;142323.63;;;2.82;85.82
5877;BME280;2964;42.144;24.730;2024-01-11T09:12:00;142488.38;;;3.50;84.22
5877;BME280;2964;42.144;24.730;2024-01-11T09:14:28;142467.19;;;3.41;81.64
5877;BME280;2964;42.144;24.730;2024-01-11T09:16:56;142597.06;;;3.95;81.33
5877;BME280;2964;42.144;24.730;2024-01-11T09:19:22;142830.75;;;4.91;77.66
5877;BME280;2964;42.144;24.730;2024-01-11T09:21:49;143323.75;;;6.93;70.59
5877;BME280;2964;42.144;24.730;2024-01-11T09:24:16;143785.03;;;8.82;63.46
5877;BME280;2964;42.144;24.730;2024-01-11T09:26:43;144056.09;;;9.93;58.68
5877;BME280;2964;42.144;24.730;2024-01-11T09:29:10;144250.78;;;10.72;57.03
5877;BME280;2964;42.144;24.730;2024-01-11T09:31:36;144670.69;;;12.44;49.42
5877;BME280;2964;42.144;24.730;2024-01-11T09:34:05;145273.91;;;14.90;39.35
5877;BME280;2964;42.144;24.730;2024-01-11T09:36:33;145405.00;;;15.43;38.01
5877;BME280;2964;42.144;24.730;2024-01-11T09:39:00;144654.31;;;12.37;40.48
5877;BME280;2964;42.144;24.730;2024-01-11T09:41:28;144680.75;;;12.48;40.81
5877;BME280;2964;42.144;24.730;2024-01-11T09:44:00;144874.56;;;13.27;38.36
5877;BME280;2964;42.144;24.730;2024-01-11T09:46:27;144880.81;;;13.29;38.96
5877;BME280;2964;42.144;24.730;2024-01-11T09:48:55;144903.53;;;13.39;38.77
5877;BME280;2964;42.144;24.730;2024-01-11T09:51:25;145673.72;;;16.52;33.32
5877;BME280;2964;42.144;24.730;2024-01-11T09:53:54;145292.81;;;14.97;32.52
5877;BME280;2964;42.144;24.730;2024-01-11T09:56:21;145685.09;;;16.57;32.27
5877;BME280;2964;42.144;24.730;2024-01-11T09:58:50;145672.47;;;16.52;32.46
5877;BME280;2964;42.144;24.730;2024-01-11T10:01:17;145290.31;;;14.96;32.47
5877;BME280;2964;42.144;24.730;2024-01-11T10:03:44;144573.81;;;12.04;36.78
5877;BME280;2964;42.144;24.730;2024-01-11T10:06:12;144767.56;;;12.83;37.23
5877;BME280;2964;42.144;24.730;2024-01-11T10:08:40;144274.63;;;10.82;40.67
5877;BME280;2964;42.144;24.730;2024-01-11T10:11:06;143541.75;;;7.82;46.52
5877;BME280;2964;42.144;24.730;2024-01-11T10:13:33;143120.94;;;6.10;53.21
5877;BME280;2964;42.144;24.730;2024-01-11T10:16:08;142884.50;;;5.13;58.80
5877;BME280;2964;42.144;24.730;2024-01-11T10:18:36;142818.22;;;4.86;60.06
5877;BME280;2964;42.144;24.730;2024-01-11T10:21:03;142708.22;;;4.40;62.31
5877;BME280;2964;42.144;24.730;2024-01-11T10:23:33;142598.28;;;3.95;64.01
5877;BME280;2964;42.144;24.730;2024-01-11T10:26:01;142570.81;;;3.84;65.67
5877;BME280;2964;42.144;24.730;2024-01-11T10:28:28;142488.38;;;3.50;67.15
5877;BME280;2964;42.144;24.730;2024-01-11T10:30:55;142463.41;;;3.40;70.32
5877;BME280;2964;42.144;24.730;2024-01-11T10:33:22;142393.50;;;3.11;70.66
5877;BME280;2964;42.144;24.730;2024-01-11T10:35:49;142221.31;;;2.40;72.59
5877;BME280;2964;42.144;24.730;2024-01-11T10:38:17;142417.19;;;3.21;73.65
5877;BME280;2964;42.144;24.730;2024-01-11T10:40:44;142398.47;;;3.13;73.01
5877;BME280;2964;42.144;24.730;2024-01-11T10:43:14;142374.78;;;3.03;74.61
5877;BME280;2964;42.144;24.730;2024-01-11T10:45:48;142378.53;;;3.05;74.04
5877;BME280;2964;42.144;24.730;2024-01-11T10:48:21;142288.69;;;2.68;74.52
5877;BME280;2964;42.144;24.730;2024-01-11T10:50:53;142304.88;;;2.75;75.70
5877;BME280;2964;42.144;24.730;2024-01-11T10:53:25;142279.94;;;2.64;77.63
5877;BME280;2964;42.144;24.730;2024-01-11T10:55:57;142419.72;;;3.22;75.05
5877;BME280;2964;42.144;24.730;2024-01-11T10:58:27;142448.41;;;3.34;73.22
5877;BME280;2964;42.144;24.730;2024-01-11T11:00:54;142448.41;;;3.34;73.06
5877;BME280;2964;42.144;24.730;2024-01-11T11:03:22;142453.44;;;3.36;73.19
5877;BME280;2964;42.144;24.730;2024-01-11T11:05:53;142442.19;;;3.31;72.00
5877;BME280;2964;42.144;24.730;2024-01-11T11:08:22;142394.72;;;3.12;72.33
5877;BME280;2964;42.144;24.730;2024-01-11T11:10:51;142401.00;;;3.14;73.34
5877;BME280;2964;42.144;24.730;2024-01-11T11:13:18;142483.38;;;3.48;74.72
5877;BME280;2964;42.144;24.730;2024-01-11T11:15:47;142470.88;;;3.43;74.24
5877;BME280;2964;42.144;24.730;2024-01-11T11:18:15;142379.75;;;3.05;73.54
5877;BME280;2964;42.144;24.730;2024-01-11T11:20:42;142358.53;;;2.97;73.85
5877;BME280;2964;42.144;24.730;2024-01-11T11:23:10;142427.22;;;3.25;74.49
5877;BME280;2964;42.144;24.730;2024-01-11T11:25:39;142412.22;;;3.19;73.35
5877;BME280;2964;42.144;24.730;2024-01-11T11:28:07;142469.66;;;3.42;73.02
5877;BME280;2964;42.144;24.730;2024-01-11T11:30:37;142523.34;;;3.64;71.32
5877;BME280;2964;42.144;24.730;2024-01-11T11:33:10;142505.84;;;3.57;72.48
5877;BME280;2964;42.144;24.730;2024-01-11T11:35:37;142514.59;;;3.61;71.88
5877;BME280;2964;42.144;24.730;2024-01-11T11:38:05;142520.88;;;3.63;72.12
5877;BME280;2964;42.144;24.730;2024-01-11T11:40:32;142463.41;;;3.40;68.88
5877;BME280;2964;42.144;24.730;2024-01-11T11:43:04;142452.16;;;3.35;69.31
5877;BME280;2964;42.144;24.730;2024-01-11T11:45:31;142495.88;;;3.53;69.25
5877;BME280;2964;42.144;24.730;2024-01-11T11:47:58;142588.31;;;3.91;67.40
5877;BME280;2964;42.144;24.730;2024-01-11T11:50:26;142542.06;;;3.72;68.29
5877;BME280;2964;42.144;24.730;2024-01-11T11:52:54;142533.31;;;3.68;68.97
5877;BME280;2964;42.144;24.730;2024-01-11T11:55:22;142492.13;;;3.52;67.93
5877;BME280;2964;42.144;24.730;2024-01-11T11:57:51;142523.34;;;3.64;68.25
5877;BME280;2964;42.144;24.730;2024-01-11T12:00:18;142605.75;;;3.98;67.38
5877;BME280;2964;42.144;24.730;2024-01-11T12:02:46;142417.19;;;3.21;67.47
5877;BME280;2964;42.144;24.730;2024-01-11T12:05:14;142665.75;;;4.23;63.40
5877;BME280;2964;42.144;24.730;2024-01-11T12:07:42;142668.22;;;4.24;64.26
5877;BME280;2964;42.144;24.730;2024-01-11T12:10:09;142604.53;;;3.98;64.84
5877;BME280;2964;42.144;24.730;2024-01-11T12:12:36;142612.03;;;4.01;65.24
5877;BME280;2964;42.144;24.730;2024-01-11T12:15:08;142563.31;;;3.81;65.46
5877;BME280;2964;42.144;24.730;2024-01-11T12:17:36;142653.25;;;4.18;65.25
5877;BME280;2964;42.144;24.730;2024-01-11T12:20:06;142585.78;;;3.90;65.34
5877;BME280;2964;42.144;24.730;2024-01-11T12:22:32;142588.31;;;3.91;66.04
5877;BME280;2964;42.144;24.730;2024-01-11T12:25:01;142703.22;;;4.38;63.79
5877;BME280;2964;42.144;24.730;2024-01-11T12:27:28;142698.22;;;4.36;64.08
5877;BME280;2964;42.144;24.730;2024-01-11T12:29:55;142710.72;;;4.41;63.23
5877;BME280;2964;42.144;24.730;2024-01-11T12:32:22;142645.75;;;4.15;65.66
5877;BME280;2964;42.144;24.730;2024-01-11T12:34:49;142758.19;;;4.61;64.52
5877;BME280;2964;42.144;24.730;2024-01-11T12:37:16;142784.44;;;4.72;61.84
5877;BME280;2964;42.144;24.730;2024-01-11T12:39:42;142723.25;;;4.47;63.01
5877;BME280;2964;42.144;24.730;2024-01-11T12:42:13;142689.47;;;4.33;63.13
5877;BME280;2964;42.144;24.730;2024-01-11T12:44:40;142741.97;;;4.54;62.93
5877;BME280;2964;42.144;24.730;2024-01-11T12:47:07;142721.97;;;4.46;62.83
5877;BME280;2964;42.144;24.730;2024-01-11T12:49:34;142640.75;;;4.13;63.37
5877;BME280;2964;42.144;24.730;2024-01-11T12:52:01;142768.25;;;4.65;62.66
5877;BME280;2964;42.144;24.730;2024-01-11T12:54:32;142770.72;;;4.66;62.54
5877;BME280;2964;42.144;24.730;2024-01-11T12:57:00;142650.72;;;4.17;64.16
5877;BME280;2964;42.144;24.730;2024-01-11T12:59:29;142713.22;;;4.42;65.18